Time;durP1;ratioP1;P1;durP2;ratioP2;P2;SDS_P1;SDS_P2;PMS_P1;PMS_P2;Temp;Humidity;BMP_temperature;BMP_pressure;BME280_temperature;BME280_humidity;BME280_pressure;Samples;Min_cycle;Max_cycle;Signal;HPM_P1;HPM_P2
2021/03/03 00:01:35;;;;;;;7.78;5.93;;;11.10;99.90;;;;;;5074444;28;20036;-82
2021/03/03 00:04:00;;;;;;;11.07;6.45;;;11.00;99.90;;;;;;5092797;28;20048;-82
2021/03/03 00:06:26;;;;;;;12.45;6.40;;;11.00;99.90;;;;;;5092500;28;20035;-82
2021/03/03 00:08:51;;;;;;;8.90;6.32;;;11.00;99.90;;;;;;5092987;28;20023;-82
2021/03/03 00:11:17;;;;;;;8.65;6.35;;;11.00;99.90;;;;;;5092770;28;20024;-83
2021/03/03 00:13:43;;;;;;;8.93;5.45;;;11.00;99.90;;;;;;5075054;28;20024;-83
2021/03/03 00:16:08;;;;;;;8.80;5.57;;;10.90;99.90;;;;;;5092288;28;20024;-83
2021/03/03 00:18:34;;;;;;;11.80;6.00;;;10.90;99.90;;;;;;5092896;28;20557;-83
2021/03/03 00:21:01;;;;;;;8.70;5.32;;;11.00;99.90;;;;;;5092907;28;20103;-83
2021/03/03 00:23:26;;;;;;;10.48;5.95;;;10.90;99.90;;;;;;5092515;28;20028;-83
2021/03/03 00:25:52;;;;;;;10.48;5.82;;;11.00;99.90;;;;;;5086791;28;20036;-83
2021/03/03 00:28:17;;;;;;;7.80;5.40;;;10.80;99.90;;;;;;5090845;28;20387;-82
2021/03/03 00:30:43;;;;;;;12.55;5.50;;;10.80;99.90;;;;;;5092350;28;20016;-82
2021/03/03 00:33:09;;;;;;;8.40;5.40;;;10.80;99.90;;;;;;5092872;28;20025;-82
2021/03/03 00:35:34;;;;;;;11.05;5.35;;;10.80;99.90;;;;;;5092667;28;20025;-82
2021/03/03 00:38:00;;;;;;;9.23;5.03;;;10.80;99.90;;;;;;5092971;28;20028;-82
2021/03/03 00:40:26;;;;;;;10.38;6.00;;;10.70;99.90;;;;;;5090169;28;20036;-82
2021/03/03 00:42:51;;;;;;;10.60;5.68;;;10.60;99.90;;;;;;5072636;28;20031;-82
2021/03/03 00:45:17;;;;;;;7.95;5.47;;;10.50;99.90;;;;;;5073504;28;20031;-82
2021/03/03 00:47:43;;;;;;;7.93;5.32;;;10.40;99.90;;;;;;5092423;28;20014;-82
2021/03/03 00:50:09;;;;;;;11.07;5.68;;;10.40;99.90;;;;;;5091087;28;20403;-82
2021/03/03 00:52:34;;;;;;;9.27;6.13;;;10.30;99.90;;;;;;5092791;28;20016;-82
2021/03/03 00:55:00;;;;;;;13.15;7.32;;;10.30;99.90;;;;;;5092673;28;20480;-82
2021/03/03 00:57:26;;;;;;;10.02;6.57;;;10.20;99.90;;;;;;5092621;28;20024;-82
2021/03/03 00:59:52;;;;;;;11.02;7.15;;;10.30;99.90;;;;;;5092426;28;20055;-82
2021/03/03 01:02:17;;;;;;;10.05;6.32;;;10.40;99.90;;;;;;5091675;28;20148;-82
2021/03/03 01:04:44;;;;;;;12.07;6.70;;;10.40;99.90;;;;;;5095630;28;20031;-82
2021/03/03 01:07:10;;;;;;;10.43;6.95;;;10.40;99.90;;;;;;5096328;28;20017;-82
2021/03/03 01:09:35;;;;;;;10.40;7.18;;;10.40;99.90;;;;;;5096321;28;20112;-82
2021/03/03 01:12:01;;;;;;;10.90;7.30;;;10.40;99.90;;;;;;5096242;28;20048;-82
2021/03/03 01:14:27;;;;;;;11.93;7.00;;;10.40;99.90;;;;;;5095621;28;20048;-82
2021/03/03 01:16:53;;;;;;;8.57;6.15;;;10.40;99.90;;;;;;5096254;28;20549;-82
2021/03/03 01:19:20;;;;;;;10.85;6.20;;;10.40;99.90;;;;;;5077674;28;20076;-82
2021/03/03 01:21:46;;;;;;;11.77;6.70;;;10.40;99.90;;;;;;5096013;28;20432;-82
2021/03/03 01:24:13;;;;;;;10.20;6.70;;;10.40;99.90;;;;;;5096015;28;20146;-82
2021/03/03 01:26:39;;;;;;;9.45;6.38;;;10.40;99.90;;;;;;5096294;28;20383;-82
2021/03/03 01:29:05;;;;;;;8.38;5.82;;;10.30;99.90;;;;;;5095588;28;20028;-83
2021/03/03 01:31:32;;;;;;;9.80;5.75;;;10.30;99.90;;;;;;5095576;28;20012;-82
2021/03/03 01:33:57;;;;;;;10.00;6.45;;;10.40;99.90;;;;;;5082547;28;20023;-82
2021/03/03 01:36:23;;;;;;;10.82;5.88;;;10.40;99.90;;;;;;5095604;28;20571;-82
2021/03/03 01:38:49;;;;;;;8.50;5.80;;;10.40;99.90;;;;;;5085850;28;20053;-82
2021/03/03 01:41:14;;;;;;;9.48;5.90;;;10.40;99.90;;;;;;5095325;28;20129;-83
2021/03/03 01:43:40;;;;;;;10.40;5.63;;;10.40;99.90;;;;;;5095513;28;20077;-83
2021/03/03 01:46:06;;;;;;;11.18;6.30;;;10.40;99.90;;;;;;5079026;28;20016;-83
2021/03/03 01:48:31;;;;;;;11.30;6.18;;;10.50;99.90;;;;;;5075954;28;20457;-83
2021/03/03 01:50:58;;;;;;;11.05;6.13;;;10.50;99.90;;;;;;5093429;28;20040;-82
2021/03/03 01:53:24;;;;;;;11.55;6.32;;;10.50;99.90;;;;;;5094798;28;20024;-82
2021/03/03 01:55:49;;;;;;;10.32;6.53;;;10.50;99.90;;;;;;5095409;28;20028;-82
2021/03/03 01:58:15;;;;;;;8.15;5.90;;;10.60;99.90;;;;;;5094734;28;20036;-82
2021/03/03 02:00:42;;;;;;;8.23;5.60;;;10.60;99.90;;;;;;5094484;28;20063;-82
2021/03/03 02:03:08;;;;;;;8.85;5.60;;;10.60;99.90;;;;;;5094422;28;20495;-83
2021/03/03 02:05:34;;;;;;;8.82;5.53;;;10.60;99.90;;;;;;5095068;28;20112;-82
2021/03/03 02:08:07;;;;;;;8.85;5.32;;;10.60;99.90;;;;;;5095302;28;20101;-82
2021/03/03 02:10:50;;;;;;;11.15;6.32;;;10.60;99.90;;;;;;5094825;28;20387;-82
2021/03/03 02:13:15;;;;;;;9.77;5.80;;;10.60;99.90;;;;;;5094991;28;20106;-82
2021/03/03 02:15:44;;;;;;;11.52;6.18;;;10.60;99.90;;;;;;5093904;28;20128;-82
2021/03/03 02:18:11;;;;;;;9.45;5.75;;;10.60;99.90;;;;;;5070207;28;20400;-82
2021/03/03 02:20:53;;;;;;;9.90;5.57;;;10.50;99.90;;;;;;5093985;28;20016;-82
2021/03/03 02:23:40;;;;;;;11.52;6.32;;;10.40;99.90;;;;;;5093919;28;20024;-82
2021/03/03 02:26:06;;;;;;;10.00;5.97;;;10.40;99.90;;;;;;5093400;28;20024;-82
2021/03/03 02:28:33;;;;;;;10.38;6.72;;;10.40;99.90;;;;;;5075738;28;20062;-82
2021/03/03 02:30:59;;;;;;;9.90;5.93;;;10.30;99.90;;;;;;5093655;28;20020;-82
2021/03/03 02:33:25;;;;;;;13.70;6.20;;;10.30;99.90;;;;;;5092649;28;20078;-82
2021/03/03 02:35:52;;;;;;;11.45;5.80;;;10.30;99.90;;;;;;5093741;28;20499;-82
2021/03/03 02:38:18;;;;;;;12.13;6.60;;;10.30;99.90;;;;;;5093114;28;20035;-82
2021/03/03 02:40:45;;;;;;;10.25;6.03;;;10.30;99.90;;;;;;5093071;28;20051;-82
2021/03/03 02:43:19;;;;;;;10.10;6.00;;;10.30;99.90;;;;;;5075688;28;20036;-82
2021/03/03 02:45:48;;;;;;;8.73;5.75;;;10.30;99.90;;;;;;5075350;28;20028;-82
2021/03/03 02:48:15;;;;;;;9.40;6.15;;;10.30;99.90;;;;;;5093237;28;20020;-82
2021/03/03 02:50:42;;;;;;;9.88;5.53;;;10.10;99.90;;;;;;5085753;28;20008;-82
2021/03/03 02:53:08;;;;;;;11.27;5.65;;;10.10;99.90;;;;;;5083593;28;20059;-82
2021/03/03 02:55:33;;;;;;;9.88;5.70;;;10.10;99.90;;;;;;5073157;28;20067;-82
2021/03/03 02:58:01;;;;;;;10.10;5.68;;;10.00;99.90;;;;;;5073250;28;20400;-82
2021/03/03 03:00:31;;;;;;;7.90;5.28;;;10.00;99.90;;;;;;5092271;28;20471;-82
2021/03/03 03:03:17;;;;;;;10.40;5.82;;;9.90;99.90;;;;;;5093041;28;20048;-82
2021/03/03 03:05:47;;;;;;;9.35;5.57;;;9.90;99.90;;;;;;5087935;28;20048;-82
2021/03/03 03:08:17;;;;;;;12.93;5.82;;;9.80;99.90;;;;;;5092735;28;20107;-82
2021/03/03 03:10:44;;;;;;;10.15;5.50;;;9.90;99.90;;;;;;5092895;28;20027;-82
2021/03/03 03:13:13;;;;;;;8.35;5.18;;;9.80;99.90;;;;;;5093211;28;20031;-82
2021/03/03 03:15:39;;;;;;;9.95;5.50;;;9.70;99.90;;;;;;5092126;28;20012;-82
2021/03/03 03:18:15;;;;;;;7.82;4.78;;;9.70;99.90;;;;;;5093021;28;20039;-82
2021/03/03 03:20:42;;;;;;;10.63;5.53;;;9.60;99.90;;;;;;5092960;28;20031;-82
2021/03/03 03:23:09;;;;;;;9.10;5.65;;;9.60;99.90;;;;;;5093413;28;20475;-82
2021/03/03 03:25:38;;;;;;;7.95;5.20;;;9.50;99.90;;;;;;5091788;28;20031;-82
2021/03/03 03:28:04;;;;;;;9.88;5.32;;;9.50;99.90;;;;;;5091886;28;20082;-82
2021/03/03 03:30:31;;;;;;;12.55;6.32;;;9.60;99.90;;;;;;5091899;28;20535;-82
2021/03/03 03:32:58;;;;;;;11.82;6.28;;;9.60;99.90;;;;;;5089334;28;20038;-82
2021/03/03 03:35:28;;;;;;;10.93;6.65;;;9.60;99.90;;;;;;5092866;28;20090;-82
2021/03/03 03:37:55;;;;;;;9.90;6.03;;;9.60;99.90;;;;;;5093014;28;20028;-82
2021/03/03 03:40:21;;;;;;;10.40;6.28;;;9.60;99.90;;;;;;5092435;28;20046;-82
2021/03/03 03:42:48;;;;;;;10.68;6.45;;;9.60;99.90;;;;;;5092507;28;20024;-82
2021/03/03 03:45:15;;;;;;;9.10;6.25;;;9.60;99.90;;;;;;5092769;28;20081;-82
2021/03/03 03:47:42;;;;;;;11.65;6.88;;;9.60;99.90;;;;;;5092080;28;20020;-82
2021/03/03 03:50:09;;;;;;;12.15;6.53;;;9.50;99.90;;;;;;5092466;28;20055;-82
2021/03/03 03:52:35;;;;;;;10.00;6.55;;;9.50;99.90;;;;;;5092523;28;20058;-82
2021/03/03 03:55:01;;;;;;;13.45;6.75;;;10.10;99.90;;;;;;5092484;28;20051;-82
2021/03/03 03:57:27;;;;;;;13.15;6.68;;;9.40;99.90;;;;;;5092297;28;20028;-82
2021/03/03 03:59:53;;;;;;;10.27;6.22;;;9.40;99.90;;;;;;5091776;28;20027;-82
2021/03/03 04:02:19;;;;;;;8.80;6.68;;;9.40;99.90;;;;;;5090034;28;20169;-82
2021/03/03 04:04:45;;;;;;;8.63;6.20;;;9.50;99.90;;;;;;5072240;28;20388;-82
2021/03/03 04:07:11;;;;;;;11.95;6.70;;;9.40;99.90;;;;;;5088728;28;20028;-82
2021/03/03 04:09:36;;;;;;;10.43;6.38;;;9.40;99.90;;;;;;5092214;28;20020;-82
2021/03/03 04:12:03;;;;;;;9.80;6.88;;;9.40;99.90;;;;;;5092151;28;20034;-82
2021/03/03 04:14:28;;;;;;;12.45;6.25;;;9.30;99.90;;;;;;5092161;28;20077;-82
2021/03/03 04:16:54;;;;;;;9.95;6.13;;;9.40;99.90;;;;;;5091560;28;20082;-82
2021/03/03 04:19:20;;;;;;;10.52;6.07;;;9.30;99.90;;;;;;5091646;28;20024;-82
2021/03/03 04:21:46;;;;;;;9.88;6.40;;;9.50;99.90;;;;;;5091724;28;20040;-82
2021/03/03 04:24:12;;;;;;;10.93;6.22;;;9.50;99.90;;;;;;5092018;28;20020;-82
2021/03/03 04:26:38;;;;;;;8.05;5.97;;;9.30;99.90;;;;;;5091450;28;20038;-82
2021/03/03 04:29:04;;;;;;;10.02;6.28;;;9.30;99.90;;;;;;5091429;28;20020;-82
2021/03/03 04:31:29;;;;;;;8.95;5.78;;;9.40;99.90;;;;;;5091752;28;20095;-82
2021/03/03 04:33:55;;;;;;;10.68;6.05;;;9.10;99.90;;;;;;5085589;28;20027;-82
2021/03/03 04:36:21;;;;;;;9.35;6.40;;;9.30;99.90;;;;;;5092320;28;20032;-82
2021/03/03 04:38:46;;;;;;;10.55;6.10;;;9.10;99.90;;;;;;5096140;28;20016;-82
2021/03/03 04:41:12;;;;;;;9.10;6.40;;;9.60;99.90;;;;;;5096224;28;20407;-82
2021/03/03 04:43:38;;;;;;;9.13;6.30;;;9.10;99.90;;;;;;5096294;28;20028;-82
2021/03/03 04:46:03;;;;;;;7.43;6.05;;;9.00;99.90;;;;;;5086839;28;20024;-82
2021/03/03 04:48:29;;;;;;;8.27;6.13;;;9.40;99.90;;;;;;5095752;28;20095;-82
2021/03/03 04:50:55;;;;;;;9.75;6.43;;;9.00;99.90;;;;;;5095982;28;20024;-82
2021/03/03 04:53:21;;;;;;;12.40;6.82;;;9.20;99.90;;;;;;5096483;28;20034;-82
2021/03/03 04:55:47;;;;;;;11.52;6.05;;;8.90;99.90;;;;;;5095459;28;20024;-82
2021/03/03 04:58:12;;;;;;;9.70;6.10;;;8.90;99.90;;;;;;5096285;28;20128;-82
2021/03/03 05:00:38;;;;;;;11.65;6.07;;;9.40;99.90;;;;;;5096292;28;20027;-82
2021/03/03 05:03:04;;;;;;;11.50;6.45;;;8.80;99.90;;;;;;5095661;28;20423;-82
2021/03/03 05:05:30;;;;;;;11.52;7.28;;;8.90;99.90;;;;;;5095848;28;20020;-82
2021/03/03 05:07:56;;;;;;;13.98;7.28;;;8.90;99.90;;;;;;5095727;28;20024;-82
2021/03/03 05:10:22;;;;;;;11.82;7.25;;;8.90;99.90;;;;;;5095710;28;20383;-82
2021/03/03 05:12:47;;;;;;;12.55;6.68;;;9.40;99.90;;;;;;5095972;28;20016;-82
2021/03/03 05:15:14;;;;;;;9.32;6.57;;;8.90;99.90;;;;;;5095256;28;20028;-82
2021/03/03 05:17:39;;;;;;;12.30;6.95;;;8.90;99.90;;;;;;5095664;28;20043;-82
2021/03/03 05:20:07;;;;;;;14.85;6.93;;;9.40;99.90;;;;;;5077089;28;20492;-82
2021/03/03 05:22:32;;;;;;;10.55;6.20;;;8.80;99.90;;;;;;5095838;28;20020;-82
2021/03/03 05:24:58;;;;;;;10.38;6.53;;;9.10;99.90;;;;;;5095497;28;20032;-82
2021/03/03 05:27:23;;;;;;;10.10;6.65;;;9.00;99.90;;;;;;5095408;28;20051;-82
2021/03/03 05:29:49;;;;;;;10.55;6.72;;;8.90;99.90;;;;;;5094789;28;20038;-82
2021/03/03 05:32:15;;;;;;;10.65;6.85;;;8.90;99.90;;;;;;5095327;28;20024;-82
2021/03/03 05:34:40;;;;;;;11.15;7.13;;;8.80;99.90;;;;;;5094898;28;20522;-82
2021/03/03 05:37:06;;;;;;;9.93;6.30;;;8.90;99.90;;;;;;5095296;28;20042;-82
2021/03/03 05:39:31;;;;;;;11.00;6.38;;;9.20;99.90;;;;;;5094887;28;20026;-82
2021/03/03 05:42:01;;;;;;;12.38;6.40;;;9.30;99.90;;;;;;5095287;28;20028;-82
2021/03/03 05:44:28;;;;;;;13.25;6.35;;;9.40;99.90;;;;;;5079114;28;20033;-82
2021/03/03 05:46:58;;;;;;;11.30;6.32;;;9.10;99.90;;;;;;5074717;28;20031;-82
2021/03/03 05:49:25;;;;;;;8.88;5.88;;;8.90;99.90;;;;;;5090818;28;20035;-82
2021/03/03 05:51:55;;;;;;;10.65;6.40;;;8.90;99.90;;;;;;5095243;28;20023;-82
2021/03/03 05:54:21;;;;;;;12.43;6.63;;;8.90;99.90;;;;;;5095124;28;20035;-82
2021/03/03 05:56:48;;;;;;;11.38;6.50;;;8.80;99.90;;;;;;5094906;28;20016;-82
2021/03/03 05:59:17;;;;;;;12.85;6.95;;;8.90;99.90;;;;;;5095043;28;20106;-82
2021/03/03 06:01:45;;;;;;;9.95;6.22;;;8.90;99.90;;;;;;5094815;28;20078;-82
2021/03/03 06:04:11;;;;;;;9.73;6.03;;;8.90;99.90;;;;;;5094094;28;20071;-82
2021/03/03 06:06:44;;;;;;;10.27;6.55;;;8.80;99.90;;;;;;5094987;28;20085;-82
2021/03/03 06:09:10;;;;;;;9.93;5.88;;;8.80;99.90;;;;;;5094699;28;20020;-82
2021/03/03 06:11:36;;;;;;;12.13;6.72;;;8.70;99.90;;;;;;5094241;28;20023;-82
2021/03/03 06:14:03;;;;;;;12.20;6.50;;;8.60;99.90;;;;;;5094787;28;20044;-82
2021/03/03 06:16:29;;;;;;;10.95;6.60;;;8.60;99.90;;;;;;5094823;28;20024;-82
2021/03/03 06:18:56;;;;;;;13.98;5.72;;;8.60;99.90;;;;;;5093884;28;20476;-82
2021/03/03 06:21:32;;;;;;;11.25;6.00;;;8.60;99.90;;;;;;5094826;28;20406;-82
2021/03/03 06:24:09;;;;;;;12.80;6.38;;;8.70;99.90;;;;;;5094599;28;20048;-82
2021/03/03 06:26:53;;;;;;;11.48;6.90;;;8.60;99.90;;;;;;5094388;28;20012;-82
2021/03/03 06:29:18;;;;;;;17.63;7.97;;;8.60;99.90;;;;;;5091943;28;20468;-82
2021/03/03 06:31:44;;;;;;;15.88;6.82;;;8.60;99.90;;;;;;5094316;28;20020;-82
2021/03/03 06:34:21;;;;;;;13.45;6.80;;;8.60;99.90;;;;;;5093254;28;20024;-82
2021/03/03 06:36:56;;;;;;;14.38;7.05;;;8.60;99.90;;;;;;5094464;28;20623;-82
2021/03/03 06:39:39;;;;;;;12.02;6.68;;;8.50;99.90;;;;;;5094217;28;20035;-82
2021/03/03 06:42:08;;;;;;;15.18;7.32;;;8.50;99.90;;;;;;5093640;28;20480;-82
2021/03/03 06:44:50;;;;;;;12.50;6.40;;;8.70;99.90;;;;;;5093613;28;20077;-82
2021/03/03 06:47:16;;;;;;;10.52;6.22;;;8.70;99.90;;;;;;5075388;28;20024;-81
2021/03/03 06:49:43;;;;;;;13.75;6.80;;;8.80;99.90;;;;;;5073832;28;20372;-81
2021/03/03 06:52:09;;;;;;;12.23;6.68;;;8.70;99.90;;;;;;5073430;28;20046;-81
2021/03/03 06:54:34;;;;;;;13.50;6.57;;;8.80;99.90;;;;;;5073659;28;20024;-81
2021/03/03 06:57:05;;;;;;;10.00;6.40;;;9.00;99.90;;;;;;5089165;28;20027;-82
2021/03/03 06:59:32;;;;;;;14.00;6.80;;;8.80;99.90;;;;;;5093329;28;20028;-81
2021/03/03 07:02:06;;;;;;;12.07;6.75;;;8.90;99.90;;;;;;5092017;28;20027;-81
2021/03/03 07:04:36;;;;;;;11.77;7.15;;;9.20;99.90;;;;;;5093639;28;20491;-81
2021/03/03 07:07:12;;;;;;;11.23;6.78;;;8.80;99.90;;;;;;5059585;28;20365;-82
2021/03/03 07:09:39;;;;;;;11.23;7.20;;;8.80;99.90;;;;;;5073425;28;20468;-82
2021/03/03 07:12:08;;;;;;;12.70;6.93;;;9.50;99.90;;;;;;5089592;28;20027;-81
2021/03/03 07:14:35;;;;;;;14.30;6.93;;;9.00;99.90;;;;;;5093499;28;20085;-81
2021/03/03 07:17:08;;;;;;;12.60;7.10;;;9.00;99.90;;;;;;5092849;28;20047;-81
2021/03/03 07:19:42;;;;;;;13.48;6.88;;;9.00;99.90;;;;;;5093024;28;20027;-81
2021/03/03 07:22:35;;;;;;;10.40;7.13;;;9.10;99.90;;;;;;5076197;28;20535;-83
2021/03/03 07:25:06;;;;;;;12.63;7.43;;;9.30;99.90;;;;;;5084475;28;20496;-81
2021/03/03 07:27:32;;;;;;;12.23;7.70;;;9.20;99.90;;;;;;5084213;28;20022;-80
2021/03/03 07:30:01;;;;;;;13.73;7.40;;;9.50;99.90;;;;;;5093137;28;20261;-81
2021/03/03 07:32:27;;;;;;;16.23;8.35;;;9.20;99.90;;;;;;5078256;28;20087;-80
2021/03/03 07:34:55;;;;;;;15.15;7.60;;;9.20;99.90;;;;;;5074895;28;20028;-81
2021/03/03 07:37:23;;;;;;;13.32;7.38;;;9.20;99.90;;;;;;5093190;28;20490;-86
2021/03/03 07:39:55;;;;;;;13.90;6.93;;;9.20;99.90;;;;;;5093179;28;20510;-85
2021/03/03 07:42:25;;;;;;;16.02;7.28;;;9.20;99.90;;;;;;5092225;28;20379;-82
2021/03/03 07:44:54;;;;;;;12.30;7.13;;;9.20;99.90;;;;;;5092281;28;20024;-82
2021/03/03 07:47:24;;;;;;;14.45;7.10;;;9.50;99.90;;;;;;5092900;28;20549;-82
2021/03/03 07:49:51;;;;;;;13.63;7.82;;;9.60;99.90;;;;;;5092727;28;20038;-82
2021/03/03 07:52:19;;;;;;;12.95;7.35;;;9.50;99.90;;;;;;5092800;28;20099;-82
2021/03/03 07:54:45;;;;;;;15.95;7.70;;;9.40;99.90;;;;;;5093167;28;20031;-82
2021/03/03 07:57:13;;;;;;;16.05;7.78;;;9.40;99.90;;;;;;5092602;28;20030;-82
2021/03/03 07:59:42;;;;;;;11.57;7.32;;;9.40;99.90;;;;;;5092102;28;20523;-82
2021/03/03 08:02:09;;;;;;;13.30;7.85;;;9.40;99.90;;;;;;5093169;28;20028;-82
2021/03/03 08:04:36;;;;;;;18.95;8.13;;;9.40;99.90;;;;;;5092326;28;20052;-82
2021/03/03 08:07:22;;;;;;;11.43;7.47;;;9.50;99.90;;;;;;5091793;28;20024;-81
2021/03/03 08:10:20;;;;;;;11.13;7.47;;;9.50;99.90;;;;;;5091575;28;20043;-81
2021/03/03 08:13:05;;;;;;;17.25;8.82;;;9.60;99.90;;;;;;4973906;28;20113;-82
2021/03/03 08:15:42;;;;;;;18.55;7.30;;;9.70;99.90;;;;;;4990510;28;20061;-82
2021/03/03 08:18:14;;;;;;;15.00;7.68;;;9.70;99.90;;;;;;4984093;28;20143;-82
2021/03/03 08:20:43;;;;;;;15.38;7.80;;;9.90;99.90;;;;;;4972613;28;20031;-82
2021/03/03 08:23:08;;;;;;;11.93;7.15;;;9.90;99.90;;;;;;4990797;28;20038;-82
2021/03/03 08:25:48;;;;;;;20.75;7.65;;;9.90;99.90;;;;;;4989461;28;20022;-81
2021/03/03 08:28:37;;;;;;;16.02;7.72;;;10.00;99.90;;;;;;4990312;28;20058;-81
2021/03/03 08:31:09;;;;;;;16.88;7.80;;;10.10;99.90;;;;;;4991081;28;20084;-81
2021/03/03 08:33:36;;;;;;;18.38;7.97;;;10.10;99.90;;;;;;4990840;28;20042;-81
2021/03/03 08:36:02;;;;;;;14.60;7.75;;;10.10;99.90;;;;;;4990719;28;20031;-81
2021/03/03 08:38:28;;;;;;;17.70;8.25;;;10.20;99.90;;;;;;4990033;28;20038;-81
2021/03/03 08:41:14;;;;;;;13.10;7.95;;;10.20;99.90;;;;;;4989296;28;20038;-81
2021/03/03 08:43:40;;;;;;;12.43;7.07;;;10.30;99.90;;;;;;4990032;28;20041;-81
2021/03/03 08:46:21;;;;;;;15.52;7.80;;;10.40;99.90;;;;;;4990702;28;20034;-81
2021/03/03 08:48:53;;;;;;;10.90;7.22;;;10.50;99.90;;;;;;5059571;28;20043;-81
2021/03/03 08:51:34;;;;;;;13.60;7.20;;;10.60;99.90;;;;;;5092441;28;20554;-81
2021/03/03 08:54:03;;;;;;;15.35;8.02;;;10.70;99.90;;;;;;5092316;28;20028;-81
2021/03/03 08:56:32;;;;;;;15.02;7.80;;;10.80;99.90;;;;;;5092075;28;20480;-81
2021/03/03 08:59:02;;;;;;;12.93;7.82;;;10.80;99.90;;;;;;5092000;28;20024;-81
2021/03/03 09:01:53;;;;;;;16.25;6.93;;;10.90;99.90;;;;;;5091986;28;20505;-81
2021/03/03 09:04:40;;;;;;;14.23;7.25;;;11.00;99.90;;;;;;5092047;28;20047;-81
2021/03/03 09:07:08;;;;;;;12.63;6.78;;;11.00;99.90;;;;;;5091354;28;20044;-81
2021/03/03 09:09:39;;;;;;;13.18;7.07;;;11.10;99.90;;;;;;5091893;28;20031;-81
2021/03/03 09:12:07;;;;;;;12.13;7.00;;;11.20;99.90;;;;;;5091943;28;20456;-81
2021/03/03 09:14:34;;;;;;;13.57;7.82;;;11.20;99.90;;;;;;5092030;28;20016;-81
2021/03/03 09:17:06;;;;;;;20.02;7.45;;;11.30;99.90;;;;;;5092073;28;20052;-81
2021/03/03 09:19:33;;;;;;;11.93;7.32;;;11.30;99.90;;;;;;5073773;28;20028;-81
2021/03/03 09:21:59;;;;;;;13.60;7.45;;;11.40;99.90;;;;;;5092117;28;20043;-82
2021/03/03 09:24:25;;;;;;;10.00;6.88;;;11.50;99.90;;;;;;5093136;28;20028;-82
2021/03/03 09:27:07;;;;;;;15.75;7.78;;;11.50;99.90;;;;;;5095334;28;20028;-82
2021/03/03 09:29:34;;;;;;;14.38;6.90;;;11.60;99.90;;;;;;5095556;28;20031;-82
2021/03/03 09:32:12;;;;;;;15.13;6.97;;;11.70;99.90;;;;;;5094998;28;20020;-82
2021/03/03 09:34:47;;;;;;;11.23;7.88;;;11.70;99.90;;;;;;5075184;28;20025;-82
2021/03/03 09:37:13;;;;;;;14.32;7.45;;;11.80;99.90;;;;;;5075284;28;20029;-82
2021/03/03 09:39:40;;;;;;;13.57;7.78;;;11.90;99.90;;;;;;5057058;28;20028;-82
2021/03/03 09:42:08;;;;;;;14.18;8.57;;;12.00;99.90;;;;;;5075079;28;20028;-82
2021/03/03 09:44:52;;;;;;;15.82;9.23;;;12.10;99.90;;;;;;5075098;28;20029;-82
2021/03/03 09:47:21;;;;;;;17.55;9.63;;;12.10;99.90;;;;;;5075226;28;20035;-82
2021/03/03 09:49:47;;;;;;;36.67;11.68;;;12.10;99.90;;;;;;5056818;28;21128;-82
2021/03/03 09:52:13;;;;;;;31.90;10.75;;;12.10;99.90;;;;;;5074937;28;20020;-82
2021/03/03 09:54:38;;;;;;;30.95;13.55;;;12.00;99.90;;;;;;5074775;28;20056;-82
2021/03/03 09:57:08;;;;;;;37.22;13.15;;;11.80;99.90;;;;;;5074607;28;20552;-81
2021/03/03 09:59:45;;;;;;;34.05;13.60;;;11.80;99.90;;;;;;5074831;28;20576;-81
2021/03/03 10:02:23;;;;;;;35.45;14.23;;;11.70;99.90;;;;;;5074571;28;20020;-82
2021/03/03 10:04:50;;;;;;;30.52;13.32;;;11.90;99.90;;;;;;5074583;28;20033;-82
2021/03/03 10:07:22;;;;;;;36.65;21.70;;;12.00;99.90;;;;;;5074809;28;20017;-82
2021/03/03 10:09:54;;;;;;;29.52;12.77;;;12.10;99.90;;;;;;5074368;28;20083;-82
2021/03/03 10:12:22;;;;;;;34.38;13.75;;;12.00;99.90;;;;;;5074472;28;20044;-82
2021/03/03 10:14:57;;;;;;;33.03;13.63;;;12.10;99.90;;;;;;5074495;28;20025;-82
2021/03/03 10:17:29;;;;;;;30.17;14.57;;;12.30;99.90;;;;;;5074723;28;20074;-82
2021/03/03 10:19:56;;;;;;;33.20;15.43;;;12.40;99.90;;;;;;5074445;28;20404;-82
2021/03/03 10:22:21;;;;;;;28.95;13.40;;;12.30;99.90;;;;;;5074348;28;20137;-82
2021/03/03 10:24:58;;;;;;;38.53;14.23;;;12.40;99.90;;;;;;5074036;28;20519;-82
2021/03/03 10:27:25;;;;;;;31.55;14.88;;;12.50;99.90;;;;;;5074433;28;20326;-82
2021/03/03 10:29:51;;;;;;;32.72;15.77;;;12.60;99.90;;;;;;5074140;28;20032;-82
2021/03/03 10:32:16;;;;;;;32.00;16.25;;;12.50;99.90;;;;;;5073984;28;20028;-82
2021/03/03 10:34:43;;;;;;;27.10;14.05;;;12.60;99.90;;;;;;5073715;28;20056;-82
2021/03/03 10:37:27;;;;;;;30.27;13.43;;;12.80;99.90;;;;;;5074166;28;20514;-82
2021/03/03 10:39:53;;;;;;;21.02;11.27;;;13.00;99.90;;;;;;5073928;28;20020;-82
2021/03/03 10:42:23;;;;;;;29.30;14.05;;;13.10;99.90;;;;;;5074092;28;20103;-82
2021/03/03 10:44:52;;;;;;;23.95;13.48;;;12.90;99.90;;;;;;5073676;28;20501;-82
2021/03/03 10:47:42;;;;;;;30.15;16.92;;;13.00;99.90;;;;;;5074034;28;20017;-82
2021/03/03 10:50:10;;;;;;;30.73;16.45;;;13.00;99.90;;;;;;5074026;28;20511;-82
2021/03/03 10:52:36;;;;;;;24.13;15.63;;;13.10;99.90;;;;;;5073764;28;20116;-82
2021/03/03 10:55:15;;;;;;;27.95;15.93;;;13.30;99.90;;;;;;5073263;28;20024;-82
2021/03/03 10:58:04;;;;;;;24.38;14.15;;;13.50;99.90;;;;;;5073753;28;20078;-82
2021/03/03 11:00:30;;;;;;;21.58;13.70;;;13.60;99.90;;;;;;5073708;28;20024;-82
2021/03/03 11:03:05;;;;;;;17.85;11.43;;;13.60;99.90;;;;;;5073344;28;20044;-83
2021/03/03 11:05:31;;;;;;;24.75;11.15;;;13.80;99.90;;;;;;5073608;28;20025;-82
2021/03/03 11:07:56;;;;;;;19.73;10.45;;;14.00;99.90;;;;;;5073100;28;20545;-82
2021/03/03 11:10:23;;;;;;;18.35;9.75;;;13.90;99.90;;;;;;5073325;28;20025;-82
2021/03/03 11:12:49;;;;;;;12.55;7.78;;;14.10;99.90;;;;;;5073447;28;20499;-82
2021/03/03 11:15:16;;;;;;;15.13;7.88;;;14.20;99.90;;;;;;5073407;28;20032;-82
2021/03/03 11:17:43;;;;;;;14.00;7.80;;;14.10;99.90;;;;;;5073134;28;20522;-82
2021/03/03 11:20:09;;;;;;;15.80;6.70;;;14.10;99.90;;;;;;5073408;28;20028;-82
2021/03/03 11:22:35;;;;;;;12.23;6.68;;;14.10;99.90;;;;;;5073118;28;20017;-82
2021/03/03 11:25:02;;;;;;;11.30;6.60;;;14.30;99.90;;;;;;5073159;28;20038;-82
2021/03/03 11:27:28;;;;;;;11.43;6.75;;;14.30;99.90;;;;;;5055250;28;20025;-82
2021/03/03 11:29:54;;;;;;;9.02;6.32;;;14.20;99.90;;;;;;5072978;28;20111;-82
2021/03/03 11:32:20;;;;;;;10.30;6.65;;;14.20;99.90;;;;;;5072799;28;20052;-82
2021/03/03 11:34:46;;;;;;;8.63;6.10;;;14.20;99.90;;;;;;5072976;28;20052;-82
2021/03/03 11:37:12;;;;;;;11.93;6.97;;;14.40;99.90;;;;;;5072708;28;20020;-82
2021/03/03 11:39:37;;;;;;;11.48;6.22;;;14.50;99.90;;;;;;5072860;28;20056;-82
2021/03/03 11:42:03;;;;;;;10.70;6.30;;;14.50;99.90;;;;;;5072953;28;20056;-82
2021/03/03 11:44:29;;;;;;;9.00;6.22;;;14.60;99.90;;;;;;5073018;28;20024;-82
2021/03/03 11:46:54;;;;;;;10.13;6.75;;;14.60;99.90;;;;;;5054200;28;20028;-82
2021/03/03 11:49:20;;;;;;;11.40;6.40;;;14.70;99.90;;;;;;5072669;28;20028;-82
2021/03/03 11:51:47;;;;;;;10.27;6.20;;;14.70;99.90;;;;;;5072355;28;20032;-82
2021/03/03 11:54:12;;;;;;;10.40;6.40;;;14.60;99.90;;;;;;5072711;28;20472;-82
2021/03/03 11:56:38;;;;;;;11.57;6.15;;;14.60;99.90;;;;;;5072735;28;20078;-82
2021/03/03 11:59:04;;;;;;;9.80;6.32;;;14.60;99.90;;;;;;5072635;28;20021;-82
2021/03/03 12:01:30;;;;;;;10.63;6.47;;;14.80;99.90;;;;;;5072620;28;20051;-82
2021/03/03 12:03:56;;;;;;;9.25;6.47;;;14.90;99.90;;;;;;5072323;28;20059;-82
2021/03/03 12:06:22;;;;;;;10.18;7.13;;;14.70;99.90;;;;;;5072219;28;20024;-82
2021/03/03 12:08:47;;;;;;;10.52;6.88;;;14.80;99.90;;;;;;5054308;28;20401;-82
2021/03/03 12:11:13;;;;;;;11.70;7.53;;;15.00;99.90;;;;;;5072462;28;20032;-82
2021/03/03 12:13:39;;;;;;;11.10;7.13;;;14.90;99.90;;;;;;5072555;28;20085;-82
2021/03/03 12:16:04;;;;;;;11.70;7.43;;;14.70;99.90;;;;;;5072502;28;20025;-82
2021/03/03 12:18:30;;;;;;;11.20;7.55;;;14.80;99.90;;;;;;5072361;28;20035;-82
2021/03/03 12:20:56;;;;;;;12.10;7.90;;;14.90;99.90;;;;;;5071893;28;20451;-82
2021/03/03 12:23:21;;;;;;;13.40;7.72;;;14.90;99.90;;;;;;5072541;28;20020;-82
2021/03/03 12:25:47;;;;;;;12.90;7.68;;;14.90;99.90;;;;;;5072243;28;20111;-82
2021/03/03 12:28:12;;;;;;;11.90;8.20;;;15.10;99.90;;;;;;5072281;28;20032;-82
2021/03/03 12:30:38;;;;;;;11.75;8.40;;;15.00;99.90;;;;;;5072416;28;20055;-82
2021/03/03 12:33:04;;;;;;;12.73;8.65;;;14.90;99.90;;;;;;5071998;28;20228;-82
2021/03/03 12:35:29;;;;;;;15.07;8.25;;;14.90;99.90;;;;;;5071800;28;20021;-82
2021/03/03 12:37:55;;;;;;;13.43;8.15;;;14.90;99.90;;;;;;5072170;28;20499;-82
2021/03/03 12:40:20;;;;;;;13.75;8.80;;;14.90;99.90;;;;;;5072262;28;20071;-82
2021/03/03 12:42:46;;;;;;;12.57;8.35;;;15.10;99.90;;;;;;5072158;28;20504;-82
2021/03/03 12:45:12;;;;;;;12.57;8.52;;;15.10;99.90;;;;;;5072042;28;20496;-82
2021/03/03 12:47:38;;;;;;;12.63;8.48;;;15.30;99.90;;;;;;5072151;28;20507;-82
2021/03/03 12:50:05;;;;;;;15.63;8.65;;;15.10;99.90;;;;;;5071638;28;20024;-83